Eagle Turin — 9VMG6 — position and weather

sailwx.info

Track history (hours):
 
Tides and Currents Weather Stations Pressure Air Temp Water Temp Dewpoint Dewpoint Depression Visibility Wind Speed Wind Dir Waves Ship Positions

Eagle Turin

Last reported at 2017-Feb-26 14:27 UTC. Time now 2017-Feb-27 16:01 UTC.
Position N 29°54' W 093°54'.

Length 246 m; draft 8.5 m.

Type: Ship. MMSI: 565770000.

Date/timePositionNaut miles runAvg speedWind from/ knotsBaromVisibWave heightAir tempDewpointWater temp
2017-Feb-26 14:27N 29°54' W 093°54'5 5.5
2017-Feb-26 13:28N 29°59' W 093°54'25 0.5
2017-Feb-24 12:31N 29°35' W 093°47'1010.3
2017-Feb-24 11:33N 29°28' W 093°40'7 6.7
2017-Feb-24 10:33N 29°21' W 093°39'7 7.0
2017-Feb-24 09:33N 29°14' W 093°39'6 5.5
2017-Feb-24 08:33N 29°10' W 093°43'0 0.3
2017-Feb-24 07:33N 29°09' W 093°43'5 5.5
2017-Feb-24 06:33N 29°05' W 093°48'1211.5
2017-Feb-24 05:33N 28°56' W 093°56'1111.4
2017-Feb-24 04:33N 28°48' W 094°05'1311.5
2017-Feb-24 03:24N 28°39' W 094°16'7 8.1
2017-Feb-24 02:33N 28°34' W 094°21'2 0.9
2017-Feb-24 00:23N 28°32' W 094°22'0 0.1
2017-Feb-23 23:12N 28°32' W 094°22'0 0.0
2017-Feb-23 11:05N 28°32' W 094°22'0 0.0
2017-Feb-23 10:18N 28°32' W 094°22'0 0.0
2017-Feb-23 09:33N 28°32' W 094°22'0 0.0
2017-Feb-23 08:32N 28°32' W 094°22'0 0.0
2017-Feb-23 07:27N 28°32' W 094°22'51 5.0
2017-Feb-22 21:14N 29°20' W 094°41'8 8.5
2017-Feb-22 20:16N 29°24' W 094°49'6 9.1
2017-Feb-22 19:33N 29°30' W 094°52'10 9.7
2017-Feb-22 18:33N 29°39' W 094°58'7 7.3
2017-Feb-22 17:33N 29°44' W 095°04'4 3.5
2017-Feb-22 16:32N 29°44' W 095°08'0 0.0
2017-Feb-22 15:29N 29°44' W 095°08'0 0.0
2017-Feb-22 14:29N 29°44' W 095°08'0 0.0
2017-Feb-22 13:32N 29°44' W 095°08'0 0.0
2017-Feb-22 12:29N 29°44' W 095°08'0 0.0
2017-Feb-22 11:26N 29°44' W 095°08'0 0.0
2017-Feb-22 10:32N 29°44' W 095°08'0 0.0
2017-Feb-22 06:26N 29°44' W 095°08'0 0.0
2017-Feb-22 00:23N 29°44' W 095°08'0 0.0
2017-Feb-21 23:32N 29°44' W 095°08'0 0.0
2017-Feb-21 22:32N 29°44' W 095°08'0 0.0
2017-Feb-21 21:26N 29°44' W 095°08'0 0.0
2017-Feb-21 20:29N 29°44' W 095°08'0 0.0
2017-Feb-21 19:29N 29°44' W 095°08'0 0.0
2017-Feb-21 18:29N 29°44' W 095°08'0 0.0
2017-Feb-21 17:26N 29°44' W 095°08'0 0.0
2017-Feb-21 16:32N 29°44' W 095°08'0 0.0
2017-Feb-21 15:17N 29°44' W 095°08'0 0.0
2017-Feb-21 14:32N 29°44' W 095°08'0 0.0
2017-Feb-21 13:23N 29°44' W 095°08'0 0.0
2017-Feb-20 21:32N 29°44' W 095°08'0 0.0
2017-Feb-20 20:32N 29°44' W 095°08'0 0.0
2017-Feb-20 19:32N 29°44' W 095°08'0 0.0
2017-Feb-20 18:32N 29°44' W 095°08'0 0.0
2017-Feb-20 17:32N 29°44' W 095°08'0 0.0
2017-Feb-20 16:29N 29°44' W 095°08'0 0.0
2017-Feb-20 15:32N 29°44' W 095°08'0 0.0
2017-Feb-20 14:32N 29°44' W 095°08'0 0.0
2017-Feb-20 00:05N 29°44' W 095°08'0 0.0
2017-Feb-19 23:26N 29°44' W 095°08'0 0.0
2017-Feb-19 22:32N 29°44' W 095°08'0 0.0
2017-Feb-19 21:29N 29°44' W 095°08'0 0.0
2017-Feb-19 20:26N 29°44' W 095°08'0 0.0
2017-Feb-19 19:29N 29°44' W 095°08'0 0.0
2017-Feb-19 18:32N 29°44' W 095°08'0 0.0
2017-Feb-19 17:32N 29°44' W 095°08'0 0.0
2017-Feb-19 16:29N 29°44' W 095°08'0 0.0
2017-Feb-19 15:29N 29°44' W 095°08'0 0.0
2017-Feb-19 14:29N 29°44' W 095°08'0 0.0
2017-Feb-19 00:17N 29°44' W 095°08'1 1.2
2017-Feb-18 23:33N 29°44' W 095°07'5 4.7
2017-Feb-18 22:33N 29°44' W 095°01'7 7.3
2017-Feb-18 21:33N 29°37' W 094°57'10 9.7
2017-Feb-18 20:33N 29°29' W 094°52'11 9.5
2017-Feb-18 19:23N 29°21' W 094°43'19 6.2
2017-Feb-18 16:14N 29°02' W 094°36'  
Track history (hours):
 
Tides and Currents Weather Stations Pressure Air Temp Water Temp Dewpoint Dewpoint Depression Visibility Wind Speed Wind Dir Waves Ship Positions

Eagle Turin

Last reported at 2017-Feb-26 14:27 UTC. Time now 2017-Feb-27 16:01 UTC.
Position N 29°54' W 093°54'.

Length 246 m; draft 8.5 m.

Type: Ship. MMSI: 565770000.

Date/timePositionNaut miles runAvg speedWind from/ knotsBaromVisibWave heightAir tempDewpointWater temp
2017-Feb-26 14:27N 29°54' W 093°54'5 5.5
2017-Feb-26 13:28N 29°59' W 093°54'25 0.5
2017-Feb-24 12:31N 29°35' W 093°47'1010.3
2017-Feb-24 11:33N 29°28' W 093°40'7 6.7
2017-Feb-24 10:33N 29°21' W 093°39'7 7.0
2017-Feb-24 09:33N 29°14' W 093°39'6 5.5
2017-Feb-24 08:33N 29°10' W 093°43'0 0.3
2017-Feb-24 07:33N 29°09' W 093°43'5 5.5
2017-Feb-24 06:33N 29°05' W 093°48'1211.5
2017-Feb-24 05:33N 28°56' W 093°56'1111.4
2017-Feb-24 04:33N 28°48' W 094°05'1311.5
2017-Feb-24 03:24N 28°39' W 094°16'7 8.1
2017-Feb-24 02:33N 28°34' W 094°21'2 0.9
2017-Feb-24 00:23N 28°32' W 094°22'0 0.1
2017-Feb-23 23:12N 28°32' W 094°22'0 0.0
2017-Feb-23 11:05N 28°32' W 094°22'0 0.0
2017-Feb-23 10:18N 28°32' W 094°22'0 0.0
2017-Feb-23 09:33N 28°32' W 094°22'0 0.0
2017-Feb-23 08:32N 28°32' W 094°22'0 0.0
2017-Feb-23 07:27N 28°32' W 094°22'51 5.0
2017-Feb-22 21:14N 29°20' W 094°41'8 8.5
2017-Feb-22 20:16N 29°24' W 094°49'6 9.1
2017-Feb-22 19:33N 29°30' W 094°52'10 9.7
2017-Feb-22 18:33N 29°39' W 094°58'7 7.3
2017-Feb-22 17:33N 29°44' W 095°04'4 3.5
2017-Feb-22 16:32N 29°44' W 095°08'0 0.0
2017-Feb-22 15:29N 29°44' W 095°08'0 0.0
2017-Feb-22 14:29N 29°44' W 095°08'0 0.0
2017-Feb-22 13:32N 29°44' W 095°08'0 0.0
2017-Feb-22 12:29N 29°44' W 095°08'0 0.0
2017-Feb-22 11:26N 29°44' W 095°08'0 0.0
2017-Feb-22 10:32N 29°44' W 095°08'0 0.0
2017-Feb-22 06:26N 29°44' W 095°08'0 0.0
2017-Feb-22 00:23N 29°44' W 095°08'0 0.0
2017-Feb-21 23:32N 29°44' W 095°08'0 0.0
2017-Feb-21 22:32N 29°44' W 095°08'0 0.0
2017-Feb-21 21:26N 29°44' W 095°08'0 0.0
2017-Feb-21 20:29N 29°44' W 095°08'0 0.0
2017-Feb-21 19:29N 29°44' W 095°08'0 0.0
2017-Feb-21 18:29N 29°44' W 095°08'0 0.0
2017-Feb-21 17:26N 29°44' W 095°08'0 0.0
2017-Feb-21 16:32N 29°44' W 095°08'0 0.0
2017-Feb-21 15:17N 29°44' W 095°08'0 0.0
2017-Feb-21 14:32N 29°44' W 095°08'0 0.0
2017-Feb-21 13:23N 29°44' W 095°08'0 0.0
2017-Feb-20 21:32N 29°44' W 095°08'0 0.0
2017-Feb-20 20:32N 29°44' W 095°08'0 0.0
2017-Feb-20 19:32N 29°44' W 095°08'0 0.0
2017-Feb-20 18:32N 29°44' W 095°08'0 0.0
2017-Feb-20 17:32N 29°44' W 095°08'0 0.0
2017-Feb-20 16:29N 29°44' W 095°08'0 0.0
2017-Feb-20 15:32N 29°44' W 095°08'0 0.0
2017-Feb-20 14:32N 29°44' W 095°08'0 0.0
2017-Feb-20 00:05N 29°44' W 095°08'0 0.0
2017-Feb-19 23:26N 29°44' W 095°08'0 0.0
2017-Feb-19 22:32N 29°44' W 095°08'0 0.0
2017-Feb-19 21:29N 29°44' W 095°08'0 0.0
2017-Feb-19 20:26N 29°44' W 095°08'0 0.0
2017-Feb-19 19:29N 29°44' W 095°08'0 0.0
2017-Feb-19 18:32N 29°44' W 095°08'0 0.0
2017-Feb-19 17:32N 29°44' W 095°08'0 0.0
2017-Feb-19 16:29N 29°44' W 095°08'0 0.0
2017-Feb-19 15:29N 29°44' W 095°08'0 0.0
2017-Feb-19 14:29N 29°44' W 095°08'0 0.0
2017-Feb-19 00:17N 29°44' W 095°08'1 1.2
2017-Feb-18 23:33N 29°44' W 095°07'5 4.7
2017-Feb-18 22:33N 29°44' W 095°01'7 7.3
2017-Feb-18 21:33N 29°37' W 094°57'10 9.7
2017-Feb-18 20:33N 29°29' W 094°52'11 9.5
2017-Feb-18 19:23N 29°21' W 094°43'19 6.2
2017-Feb-18 16:14N 29°02' W 094°36'  

Dump ship's entire track history